createdAt,value
2019-02-26T00:01:39.666Z,77.71
2019-02-26T00:02:39.666Z,77.90
2019-02-26T00:04:34.439Z,77.43
2019-02-26T00:05:33.039Z,77.52
2019-02-26T00:07:27.549Z,78.19
2019-02-26T00:08:26.731Z,78.09
2019-02-26T00:10:22.277Z,78.09
2019-02-26T00:11:18.379Z,78.05
2019-02-26T00:13:11.297Z,78.24
2019-02-26T00:14:15.568Z,78.24
2019-02-26T00:16:07.689Z,78.53
2019-02-26T00:17:08.636Z,78.24
2019-02-26T00:19:00.694Z,78.43
2019-02-26T00:19:57.096Z,79.00
2019-02-26T00:21:51.777Z,79.00
2019-02-26T00:22:50.002Z,78.62
2019-02-26T00:24:44.395Z,79.28
2019-02-26T00:25:42.908Z,79.19
2019-02-26T00:27:35.808Z,79.19
2019-02-26T00:28:36.584Z,79.10
2019-02-26T00:30:28.703Z,79.47
2019-02-26T00:31:30.410Z,79.57
2019-02-26T00:33:23.072Z,79.47
2019-02-26T00:34:21.619Z,79.76
2019-02-26T00:36:15.402Z,79.66
2019-02-26T00:37:14.525Z,79.38
2019-02-26T00:39:07.427Z,79.95
2019-02-26T00:40:09.557Z,80.43
2019-02-26T00:42:02.552Z,80.52
2019-02-26T00:43:02.560Z,80.14
2019-02-26T00:44:55.349Z,80.24
2019-02-26T00:45:55.601Z,80.33
2019-02-26T00:47:46.305Z,80.04
2019-02-26T00:48:46.173Z,80.33
2019-02-26T00:50:39.798Z,80.33
2019-02-26T00:51:41.242Z,80.43
2019-02-26T00:53:33.092Z,80.43
2019-02-26T00:54:34.258Z,80.04
2019-02-26T00:56:25.340Z,80.04
2019-02-26T00:57:27.180Z,79.76
2019-02-26T00:59:17.786Z,80.14
2019-02-26T01:00:17.785Z,80.24
2019-02-26T01:02:10.681Z,79.76
2019-02-26T01:03:12.760Z,80.52
2019-02-26T01:05:04.126Z,80.14
2019-02-26T01:06:04.138Z,80.14
2019-02-26T01:07:56.500Z,80.04
2019-02-26T01:08:56.498Z,80.14
2019-02-26T01:10:49.394Z,80.71
2019-02-26T01:11:49.863Z,80.43
2019-02-26T01:13:42.307Z,81.09
2019-02-26T01:14:44.067Z,80.95
2019-02-26T01:16:36.960Z,81.27
2019-02-26T01:17:35.759Z,80.99
2019-02-26T01:19:28.112Z,81.18
2019-02-26T01:20:30.202Z,81.14
2019-02-26T01:22:21.010Z,81.37
2019-02-26T01:23:22.177Z,81.47
2019-02-26T01:25:15.888Z,81.27
2019-02-26T01:26:13.922Z,81.52
2019-02-26T01:28:06.824Z,81.43
2019-02-26T01:29:06.826Z,81.43
2019-02-26T01:31:00.378Z,81.62
2019-02-26T01:31:59.730Z,81.90
2019-02-26T01:33:52.967Z,81.99
2019-02-26T01:34:52.632Z,81.81
2019-02-26T01:36:47.263Z,82.66
2019-02-26T01:37:45.534Z,82.75
2019-02-26T01:39:42.305Z,82.47
2019-02-26T01:40:41.544Z,82.18
2019-02-26T01:42:31.694Z,82.94
2019-02-26T01:43:31.350Z,82.75
2019-02-26T01:45:25.019Z,83.32
2019-02-26T01:46:24.245Z,82.85
2019-02-26T01:48:18.560Z,82.66
2019-02-26T01:49:19.142Z,82.75
2019-02-26T01:51:10.044Z,83.32
2019-02-26T01:52:10.696Z,83.32
2019-02-26T01:54:02.953Z,83.13
2019-02-26T01:55:02.957Z,83.13
2019-02-26T01:56:55.857Z,83.04
2019-02-26T01:57:58.469Z,82.85
2019-02-26T01:59:50.247Z,83.13
2019-02-26T02:00:48.766Z,83.23
2019-02-26T02:02:41.664Z,82.94
2019-02-26T02:03:41.671Z,82.94
2019-02-26T02:05:34.569Z,82.75
2019-02-26T02:06:35.291Z,82.28
2019-02-26T02:08:27.472Z,81.71
2019-02-26T02:09:27.476Z,81.90
2019-02-26T02:11:23.425Z,81.90
2019-02-26T02:12:20.378Z,81.90
2019-02-26T02:14:14.909Z,82.37
2019-02-26T02:15:17.402Z,82.56
2019-02-26T02:17:08.348Z,82.47
2019-02-26T02:18:06.253Z,82.66
2019-02-26T02:20:03.108Z,82.62
2019-02-26T02:20:59.088Z,83.00
2019-02-26T02:22:51.981Z,83.28
2019-02-26T02:23:52.955Z,83.09
2019-02-26T02:25:45.669Z,83.09
2019-02-26T02:26:47.531Z,82.56
2019-02-26T02:28:37.794Z,82.94
2019-02-26T02:29:41.782Z,82.94
2019-02-26T02:31:34.302Z,83.23
2019-02-26T02:32:32.345Z,83.09
2019-02-26T02:34:26.483Z,83.04
2019-02-26T02:35:23.598Z,82.85
2019-02-26T02:37:18.451Z,82.90
2019-02-26T02:38:19.511Z,83.00
2019-02-26T02:40:09.412Z,83.66
2019-02-26T02:41:09.406Z,83.37
2019-02-26T02:43:04.540Z,83.28
2019-02-26T02:44:02.304Z,83.37
2019-02-26T02:45:56.471Z,83.47
2019-02-26T02:46:55.220Z,83.47
2019-02-26T02:48:48.108Z,83.51
2019-02-26T02:49:48.108Z,83.37
2019-02-26T02:51:41.003Z,83.47
2019-02-26T02:52:41.031Z,83.56
2019-02-26T02:54:33.917Z,82.90
2019-02-26T02:55:33.913Z,83.66
2019-02-26T02:57:27.379Z,82.90
2019-02-26T02:58:26.815Z,83.18
2019-02-26T03:00:21.269Z,83.47
2019-02-26T03:01:22.380Z,82.90
2019-02-26T03:03:12.614Z,83.85
2019-02-26T03:04:14.777Z,83.94
2019-02-26T03:06:07.758Z,83.47
2019-02-26T03:07:05.527Z,83.75
2019-02-26T03:08:58.424Z,83.75
2019-02-26T03:10:00.583Z,83.94
2019-02-26T03:11:53.002Z,83.85
2019-02-26T03:12:54.313Z,83.85
2019-02-26T03:14:44.581Z,83.85
2019-02-26T03:15:44.230Z,83.75
2019-02-26T03:17:37.139Z,83.66
2019-02-26T03:18:37.150Z,83.94
2019-02-26T03:20:31.810Z,83.75
2019-02-26T03:21:30.660Z,84.42
2019-02-26T03:23:22.945Z,84.13
2019-02-26T03:24:25.577Z,84.80
2019-02-26T03:26:17.935Z,84.80
2019-02-26T03:27:15.855Z,84.61
2019-02-26T03:29:08.756Z,84.23
2019-02-26T03:30:08.764Z,84.32
2019-02-26T03:32:01.656Z,84.99
2019-02-26T03:33:04.625Z,84.61
2019-02-26T03:34:54.566Z,84.42
2019-02-26T03:35:54.569Z,84.51
2019-02-26T03:37:48.780Z,84.42
2019-02-26T03:38:49.083Z,84.32
2019-02-26T03:40:40.863Z,84.42
2019-02-26T03:41:43.069Z,84.32
2019-02-26T03:43:34.737Z,84.23
2019-02-26T03:44:33.765Z,84.70
2019-02-26T03:46:26.666Z,84.42
2019-02-26T03:47:26.700Z,84.32
2019-02-26T03:49:19.575Z,84.70
2019-02-26T03:50:19.567Z,84.70
2019-02-26T03:52:15.368Z,84.80
2019-02-26T03:53:12.468Z,84.80
2019-02-26T03:55:06.830Z,84.61
2019-02-26T03:56:08.022Z,84.99
2019-02-26T03:57:59.765Z,85.08
2019-02-26T03:59:00.143Z,84.89
2019-02-26T04:00:51.172Z,85.27
2019-02-26T04:01:51.174Z,84.99
2019-02-26T04:03:44.066Z,84.89
2019-02-26T04:04:45.875Z,85.27
2019-02-26T04:06:38.905Z,85.27
2019-02-26T04:07:36.979Z,85.17
2019-02-26T04:09:29.879Z,85.27
2019-02-26T04:10:29.881Z,84.99
2019-02-26T04:12:22.770Z,84.89
2019-02-26T04:13:22.782Z,85.27
2019-02-26T04:15:15.676Z,84.89
2019-02-26T04:16:15.679Z,85.17
2019-02-26T04:18:08.569Z,85.27
2019-02-26T04:19:08.977Z,85.36
2019-02-26T04:21:05.646Z,85.17
2019-02-26T04:22:01.479Z,84.99
2019-02-26T04:23:54.369Z,85.23
2019-02-26T04:24:55.538Z,84.99
2019-02-26T04:26:47.279Z,84.80
2019-02-26T04:27:47.279Z,85.65
2019-02-26T04:29:40.787Z,85.42
2019-02-26T04:30:41.700Z,85.74
2019-02-26T04:32:37.795Z,86.03
2019-02-26T04:33:35.992Z,85.51
2019-02-26T04:35:26.979Z,85.89
2019-02-26T04:36:26.985Z,85.27
2019-02-26T04:38:20.766Z,85.61
2019-02-26T04:39:22.143Z,85.61
2019-02-26T04:41:15.882Z,85.89
2019-02-26T04:42:16.817Z,85.42
2019-02-26T04:44:06.228Z,85.99
2019-02-26T04:45:08.750Z,86.18
2019-02-26T04:47:00.234Z,86.08
2019-02-26T04:48:00.698Z,86.36
2019-02-26T04:49:51.476Z,86.93
2019-02-26T04:50:51.525Z,87.12
2019-02-26T04:52:44.382Z,86.93
2019-02-26T04:53:44.383Z,86.93
2019-02-26T04:55:39.161Z,86.36
2019-02-26T04:56:40.142Z,87.12
2019-02-26T04:58:30.173Z,86.93
2019-02-26T04:59:32.267Z,87.12
2019-02-26T05:01:23.082Z,86.65
2019-02-26T05:02:23.082Z,86.74
2019-02-26T05:04:15.976Z,86.83
2019-02-26T05:05:15.982Z,86.55
2019-02-26T05:07:12.840Z,87.12
2019-02-26T05:08:10.496Z,87.31
2019-02-26T05:10:02.413Z,87.12
2019-02-26T05:11:01.785Z,87.21
2019-02-26T05:12:57.128Z,86.93
2019-02-26T05:13:54.679Z,87.02
2019-02-26T05:15:47.569Z,87.12
2019-02-26T05:16:47.576Z,87.21
2019-02-26T05:18:40.474Z,87.21
2019-02-26T05:19:43.499Z,86.93
2019-02-26T05:21:35.427Z,87.12
2019-02-26T05:22:33.448Z,87.21
2019-02-26T05:24:26.457Z,87.31
2019-02-26T05:25:26.272Z,86.93
2019-02-26T05:27:22.309Z,86.93
2019-02-26T05:28:19.174Z,87.31
2019-02-26T05:30:13.955Z,87.12
2019-02-26T05:31:14.477Z,87.40
2019-02-26T05:33:05.584Z,87.50
2019-02-26T05:34:05.054Z,87.31
2019-02-26T05:35:57.862Z,87.59
2019-02-26T05:36:59.810Z,87.69
2019-02-26T05:38:52.493Z,87.31
2019-02-26T05:39:51.812Z,87.69
2019-02-26T05:41:43.680Z,87.59
2019-02-26T05:42:43.677Z,87.69
2019-02-26T05:44:36.570Z,87.98
2019-02-26T05:45:36.575Z,87.78
2019-02-26T05:47:29.476Z,87.78
2019-02-26T05:48:29.474Z,87.59
2019-02-26T05:50:22.366Z,87.59
2019-02-26T05:51:24.424Z,87.59
2019-02-26T05:53:15.272Z,87.78
2019-02-26T05:54:18.024Z,87.69
2019-02-26T05:56:08.847Z,87.50
2019-02-26T05:57:11.024Z,87.31
2019-02-26T05:59:04.335Z,87.59
2019-02-26T06:00:01.076Z,87.69
2019-02-26T06:01:55.928Z,87.69
2019-02-26T06:02:53.973Z,87.40
2019-02-26T06:04:46.863Z,87.50
2019-02-26T06:05:48.984Z,87.50
2019-02-26T06:07:39.774Z,87.55
2019-02-26T06:08:41.267Z,87.36
2019-02-26T06:10:32.732Z,87.93
2019-02-26T06:11:34.003Z,87.65
2019-02-26T06:13:25.571Z,87.74
2019-02-26T06:14:27.554Z,87.84
2019-02-26T06:16:19.762Z,88.02
2019-02-26T06:17:19.786Z,87.55
2019-02-26T06:19:13.290Z,88.12
2019-02-26T06:20:11.367Z,87.93
2019-02-26T06:22:04.285Z,87.84
2019-02-26T06:23:04.271Z,87.74
2019-02-26T06:24:59.575Z,88.12
2019-02-26T06:25:59.024Z,88.40
2019-02-26T06:27:50.075Z,88.59
2019-02-26T06:28:50.979Z,89.06
2019-02-26T06:30:42.971Z,88.49
2019-02-26T06:31:44.636Z,89.06
2019-02-26T06:33:36.597Z,89.35
2019-02-26T06:34:35.898Z,88.97
2019-02-26T06:36:30.467Z,89.63
2019-02-26T06:37:30.825Z,88.78
2019-02-26T06:39:22.589Z,89.06
2019-02-26T06:40:21.699Z,89.54
2019-02-26T06:42:14.627Z,89.73
2019-02-26T06:43:14.603Z,90.01
2019-02-26T06:45:08.520Z,90.20
2019-02-26T06:46:09.847Z,90.01
2019-02-26T06:48:00.462Z,90.30
2019-02-26T06:49:00.403Z,90.11
2019-02-26T06:50:55.180Z,90.77
2019-02-26T06:51:54.307Z,90.81
2019-02-26T06:53:49.228Z,90.81
2019-02-26T06:54:50.780Z,89.96
2019-02-26T06:56:43.311Z,90.34
2019-02-26T06:57:41.474Z,90.34
2019-02-26T06:59:34.399Z,90.25
2019-02-26T07:00:32.006Z,89.96
2019-02-26T07:02:28.307Z,90.15
2019-02-26T07:03:25.032Z,89.77
2019-02-26T07:05:17.814Z,89.77
2019-02-26T07:06:20.566Z,90.15
2019-02-26T07:08:10.712Z,89.77
2019-02-26T07:09:11.542Z,89.30
2019-02-26T07:11:03.898Z,89.39
2019-02-26T07:12:03.613Z,88.82
2019-02-26T07:13:58.329Z,89.01
2019-02-26T07:14:58.128Z,89.11
2019-02-26T07:16:49.409Z,89.11
2019-02-26T07:17:49.415Z,88.64
2019-02-26T07:19:42.316Z,88.64
2019-02-26T07:20:46.621Z,88.35
2019-02-26T07:22:35.210Z,88.35
2019-02-26T07:23:37.629Z,88.54
2019-02-26T07:25:28.121Z,88.87
2019-02-26T07:26:28.127Z,88.68
2019-02-26T07:28:22.866Z,89.25
2019-02-26T07:29:21.023Z,88.96
2019-02-26T07:31:13.925Z,89.25
2019-02-26T07:32:14.824Z,89.25
2019-02-26T07:34:06.826Z,88.40
2019-02-26T07:35:08.620Z,88.68
2019-02-26T07:36:59.722Z,88.78
2019-02-26T07:38:01.256Z,88.82
2019-02-26T07:39:52.630Z,88.92
2019-02-26T07:40:54.339Z,89.01
2019-02-26T07:42:46.742Z,88.82
2019-02-26T07:43:46.891Z,88.82
2019-02-26T07:45:38.433Z,88.35
2019-02-26T07:46:40.151Z,88.63
2019-02-26T07:48:33.543Z,88.82
2019-02-26T07:49:31.333Z,88.06
2019-02-26T07:51:24.229Z,87.97
2019-02-26T07:52:26.001Z,87.92
2019-02-26T07:54:17.136Z,87.73
2019-02-26T07:55:17.531Z,87.54
2019-02-26T07:57:10.033Z,86.49
2019-02-26T07:58:11.541Z,86.59
2019-02-26T08:00:02.947Z,86.49
2019-02-26T08:01:02.946Z,86.87
2019-02-26T08:02:57.779Z,86.40
2019-02-26T08:03:55.848Z,85.93
2019-02-26T08:05:48.761Z,85.17
2019-02-26T08:06:48.752Z,84.88
2019-02-26T08:08:42.490Z,85.26
2019-02-26T08:09:41.660Z,85.17
2019-02-26T08:11:36.384Z,85.11
2019-02-26T08:12:35.674Z,85.40
2019-02-26T08:14:27.458Z,85.02
2019-02-26T08:15:27.901Z,85.11
2019-02-26T08:17:20.356Z,85.02
2019-02-26T08:18:20.364Z,84.83
2019-02-26T08:20:14.902Z,85.02
2019-02-26T08:21:13.270Z,85.02
2019-02-26T08:23:07.160Z,84.83
2019-02-26T08:24:07.170Z,84.78
2019-02-26T08:26:02.171Z,85.25
2019-02-26T08:27:01.429Z,84.68
2019-02-26T08:28:52.975Z,84.78
2019-02-26T08:29:54.691Z,84.21
2019-02-26T08:31:47.479Z,83.45
2019-02-26T08:32:48.373Z,83.64
2019-02-26T08:34:39.783Z,83.07
2019-02-26T08:35:38.789Z,82.59
2019-02-26T08:37:31.688Z,82.31
2019-02-26T08:38:31.696Z,82.50
2019-02-26T08:40:24.602Z,82.82
2019-02-26T08:41:24.605Z,82.07
2019-02-26T08:43:17.502Z,81.87
2019-02-26T08:44:17.508Z,82.07
2019-02-26T08:46:12.169Z,81.87
2019-02-26T08:47:13.453Z,81.49
2019-02-26T08:49:08.440Z,81.30
2019-02-26T08:50:04.721Z,81.68
2019-02-26T08:51:56.215Z,80.93
2019-02-26T08:52:58.518Z,80.35
2019-02-26T08:54:49.129Z,80.21
2019-02-26T08:55:50.981Z,80.30
2019-02-26T08:57:42.522Z,80.11
2019-02-26T08:58:42.978Z,80.02
2019-02-26T09:00:35.437Z,80.11
2019-02-26T09:01:35.440Z,79.63
2019-02-26T09:03:28.336Z,80.30
2019-02-26T09:04:28.349Z,80.21
2019-02-26T09:06:21.254Z,79.44
2019-02-26T09:07:21.858Z,79.25
2019-02-26T09:09:14.151Z,79.25
2019-02-26T09:10:15.842Z,79.35
2019-02-26T09:12:07.094Z,78.63
2019-02-26T09:13:09.326Z,78.91
2019-02-26T09:14:59.977Z,78.06
2019-02-26T09:16:01.056Z,78.25
2019-02-26T09:17:52.876Z,77.58
2019-02-26T09:18:52.883Z,77.97
2019-02-26T09:20:45.790Z,77.77
2019-02-26T09:21:47.747Z,77.39
2019-02-26T09:23:38.688Z,76.20
2019-02-26T09:24:38.702Z,76.10
2019-02-26T09:26:31.607Z,75.81
2019-02-26T09:27:32.485Z,76.10
2019-02-26T09:29:24.507Z,76.01
2019-02-26T09:30:24.519Z,76.01
2019-02-26T09:32:18.301Z,76.48
2019-02-26T09:33:17.431Z,76.10
2019-02-26T09:35:10.339Z,76.86
2019-02-26T09:36:12.678Z,77.05
2019-02-26T09:38:03.235Z,76.20
2019-02-26T09:39:03.978Z,76.81
2019-02-26T09:40:57.131Z,76.61
2019-02-26T09:41:57.555Z,76.52
2019-02-26T09:43:49.055Z,76.42
2019-02-26T09:44:50.646Z,76.04
2019-02-26T09:46:43.919Z,76.33
2019-02-26T09:47:41.978Z,76.23
2019-02-26T09:49:35.800Z,76.14
2019-02-26T09:50:36.755Z,75.47
2019-02-26T09:52:30.211Z,75.57
2019-02-26T09:53:27.793Z,75.19
2019-02-26T09:55:20.711Z,74.94
2019-02-26T09:56:20.704Z,75.04
2019-02-26T09:58:15.743Z,74.27
2019-02-26T09:59:14.780Z,74.27
2019-02-26T10:01:08.565Z,73.51
2019-02-26T10:02:06.536Z,73.41
2019-02-26T10:04:01.326Z,73.13
2019-02-26T10:04:59.438Z,73.65
2019-02-26T10:06:52.359Z,73.83
2019-02-26T10:07:54.963Z,72.78
2019-02-26T10:09:48.342Z,72.31
2019-02-26T10:10:45.263Z,72.02
2019-02-26T10:12:39.344Z,71.45
2019-02-26T10:13:39.636Z,70.97
2019-02-26T10:15:32.365Z,71.30
2019-02-26T10:16:33.007Z,70.72
2019-02-26T10:18:25.637Z,70.53
2019-02-26T10:19:23.999Z,70.72
2019-02-26T10:21:18.494Z,70.44
2019-02-26T10:22:16.985Z,70.53
2019-02-26T10:24:09.819Z,70.53
2019-02-26T10:25:09.849Z,69.87
2019-02-26T10:27:03.732Z,69.87
2019-02-26T10:28:05.694Z,69.77
2019-02-26T10:29:55.648Z,70.06
2019-02-26T10:30:57.012Z,70.57
2019-02-26T10:32:48.567Z,70.47
2019-02-26T10:33:50.760Z,70.09
2019-02-26T10:35:44.422Z,69.62
2019-02-26T10:36:45.857Z,69.81
2019-02-26T10:38:36.534Z,69.14
2019-02-26T10:39:34.548Z,68.95
2019-02-26T10:41:27.460Z,68.76
2019-02-26T10:42:27.459Z,68.38
2019-02-26T10:44:20.516Z,65.13
2019-02-26T10:45:20.388Z,64.56
2019-02-26T10:47:13.307Z,64.94
2019-02-26T10:48:15.616Z,65.42
2019-02-26T10:50:06.325Z,64.97
2019-02-26T10:51:07.192Z,65.07
2019-02-26T10:53:06.905Z,64.40
2019-02-26T10:53:59.875Z,64.69
2019-02-26T10:55:52.020Z,64.97
2019-02-26T10:56:52.037Z,64.50
2019-02-26T10:58:44.946Z,64.40
2019-02-26T10:59:45.155Z,63.92
2019-02-26T11:01:37.860Z,64.15
2019-02-26T11:02:37.865Z,63.76
2019-02-26T11:04:34.914Z,63.39
2019-02-26T11:05:30.782Z,63.20
2019-02-26T11:07:26.412Z,62.62
2019-02-26T11:08:28.936Z,61.95
2019-02-26T11:10:20.004Z,62.43
2019-02-26T11:11:18.993Z,62.05
2019-02-26T11:13:13.005Z,61.51
2019-02-26T11:14:13.391Z,61.41
2019-02-26T11:16:04.451Z,60.93
2019-02-26T11:17:04.469Z,61.13
2019-02-26T11:18:59.332Z,61.32
2019-02-26T11:19:58.494Z,61.32
2019-02-26T11:21:54.884Z,61.03
2019-02-26T11:22:52.012Z,60.84
2019-02-26T11:24:43.204Z,59.50
2019-02-26T11:25:43.217Z,58.95
2019-02-26T11:27:38.036Z,58.95
2019-02-26T11:28:40.350Z,58.10
2019-02-26T11:30:31.623Z,56.47
2019-02-26T11:31:29.051Z,56.85
2019-02-26T11:33:21.966Z,56.76
2019-02-26T11:34:21.968Z,56.85
2019-02-26T11:36:15.741Z,56.28
2019-02-26T11:37:14.895Z,56.76
2019-02-26T11:39:09.262Z,55.80
2019-02-26T11:40:07.801Z,55.07
2019-02-26T11:42:01.203Z,55.16
2019-02-26T11:43:10.879Z,54.39
2019-02-26T11:44:53.625Z,52.77
2019-02-26T11:45:53.640Z,52.58
2019-02-26T11:47:46.548Z,53.34
2019-02-26T11:48:47.698Z,53.63
2019-02-26T11:50:44.163Z,52.48
2019-02-26T11:51:41.873Z,51.72
2019-02-26T11:53:32.401Z,51.24
2019-02-26T11:54:34.469Z,51.62
2019-02-26T11:56:25.880Z,52.51
2019-02-26T11:57:25.364Z,52.80
2019-02-26T11:59:19.476Z,52.80
2019-02-26T12:00:25.397Z,52.51
2019-02-26T12:02:11.233Z,51.75
2019-02-26T12:03:11.351Z,50.60
2019-02-26T12:05:05.609Z,45.91
2019-02-26T12:06:06.898Z,46.30
2019-02-26T12:07:58.820Z,46.48
2019-02-26T12:08:57.064Z,47.25
2019-02-26T12:10:52.216Z,46.61
2019-02-26T12:11:49.984Z,46.89
2019-02-26T12:13:44.692Z,47.85
2019-02-26T12:14:45.435Z,47.85
2019-02-26T12:16:35.818Z,47.37
2019-02-26T12:17:35.838Z,47.94
2019-02-26T12:19:31.120Z,47.18
2019-02-26T12:20:28.757Z,47.27
2019-02-26T12:22:22.742Z,47.66
2019-02-26T12:23:22.727Z,47.85
2019-02-26T12:25:14.581Z,47.27
2019-02-26T12:26:16.328Z,46.98
2019-02-26T12:28:09.077Z,46.22
2019-02-26T12:29:07.737Z,46.22
2019-02-26T12:31:01.239Z,44.02
2019-02-26T12:32:01.186Z,43.92
2019-02-26T12:33:53.542Z,43.83
2019-02-26T12:34:53.549Z,44.02
2019-02-26T12:36:48.039Z,43.83
2019-02-26T12:37:47.220Z,43.26
2019-02-26T12:39:39.391Z,41.53
2019-02-26T12:40:42.572Z,41.24
2019-02-26T12:42:32.302Z,41.05
2019-02-26T12:43:33.134Z,41.36
2019-02-26T12:45:26.116Z,41.17
2019-02-26T12:46:27.577Z,40.88
2019-02-26T12:48:20.212Z,41.17
2019-02-26T12:49:22.057Z,41.17
2019-02-26T12:51:11.276Z,40.88
2019-02-26T12:52:11.293Z,41.36
2019-02-26T12:54:06.202Z,41.17
2019-02-26T12:55:08.133Z,40.98
2019-02-26T12:56:57.639Z,39.06
2019-02-26T12:57:59.492Z,38.59
2019-02-26T12:59:50.103Z,38.49
2019-02-26T13:00:50.095Z,37.43
2019-02-26T13:02:43.825Z,38.03
2019-02-26T13:03:46.362Z,37.84
2019-02-26T13:05:38.420Z,36.69
2019-02-26T13:06:38.292Z,35.83
2019-02-26T13:08:28.852Z,34.47
2019-02-26T13:09:28.863Z,33.62
2019-02-26T13:11:24.982Z,33.33
2019-02-26T13:12:23.921Z,32.57
2019-02-26T13:14:14.732Z,31.51
2019-02-26T13:15:19.094Z,32.09
2019-02-26T13:17:07.637Z,32.57
2019-02-26T13:18:07.659Z,32.86
2019-02-26T13:20:01.784Z,33.62
2019-02-26T13:21:03.694Z,34.20
2019-02-26T13:23:00.529Z,34.29
2019-02-26T13:23:58.772Z,34.10
2019-02-26T13:25:47.109Z,33.62
2019-02-26T13:26:50.739Z,33.24
2019-02-26T13:28:41.703Z,32.95
2019-02-26T13:29:47.502Z,33.53
2019-02-26T13:31:36.014Z,33.81
2019-02-26T13:32:54.444Z,33.33
2019-02-26T13:34:25.878Z,33.92
2019-02-26T13:35:25.885Z,33.14
2019-02-26T13:37:18.794Z,32.09
2019-02-26T13:38:24.301Z,32.10
2019-02-26T13:40:12.217Z,31.24
2019-02-26T13:41:28.886Z,29.71
2019-02-26T13:44:05.153Z,28.83
2019-02-26T13:45:58.071Z,28.94
2019-02-26T13:46:58.079Z,28.66
2019-02-26T13:48:50.987Z,30.09
2019-02-26T13:49:52.049Z,30.86
2019-02-26T13:51:43.945Z,30.57
2019-02-26T13:52:43.926Z,30.67
2019-02-26T13:54:36.841Z,29.33
2019-02-26T13:55:36.850Z,28.27
2019-02-26T13:57:29.763Z,26.93
2019-02-26T13:58:29.779Z,25.78
2019-02-26T14:00:26.485Z,26.93
2019-02-26T14:01:22.698Z,27.31
2019-02-26T14:03:15.604Z,27.31
2019-02-26T14:04:15.620Z,27.31
2019-02-26T14:06:08.532Z,25.59
2019-02-26T14:07:08.547Z,25.59
2019-02-26T14:09:01.453Z,24.91
2019-02-26T14:10:01.465Z,25.40
2019-02-26T14:11:54.419Z,25.59
2019-02-26T14:12:54.392Z,25.20
2019-02-26T14:14:47.304Z,25.68
2019-02-26T14:15:47.314Z,25.78
2019-02-26T14:17:40.234Z,25.59
2019-02-26T14:18:40.237Z,24.82
2019-02-26T14:20:33.161Z,25.59
2019-02-26T14:21:33.166Z,25.11
2019-02-26T14:23:26.070Z,24.45
2019-02-26T14:24:26.090Z,24.74
2019-02-26T14:26:19.002Z,25.12
2019-02-26T14:27:19.009Z,25.21
2019-02-26T14:29:11.927Z,25.70
2019-02-26T14:30:11.933Z,26.46
2019-02-26T14:32:04.870Z,26.75
2019-02-26T14:33:04.863Z,26.75
2019-02-26T14:34:57.863Z,26.08
2019-02-26T14:35:57.785Z,26.46
2019-02-26T14:37:50.697Z,26.75
2019-02-26T14:38:50.710Z,25.79
2019-02-26T14:40:43.630Z,26.18
2019-02-26T14:41:43.647Z,25.98
2019-02-26T14:43:36.545Z,25.98
2019-02-26T14:44:36.564Z,25.31
2019-02-26T14:46:29.477Z,24.74
2019-02-26T14:47:30.089Z,24.93
2019-02-26T14:49:22.407Z,25.41
2019-02-26T14:50:22.417Z,25.79
2019-02-26T14:52:15.334Z,25.79
2019-02-26T14:53:15.340Z,25.41
2019-02-26T14:55:08.256Z,25.60
2019-02-26T14:56:08.270Z,25.79
2019-02-26T14:58:01.175Z,26.08
2019-02-26T14:59:01.189Z,25.60
2019-02-26T15:00:57.638Z,25.89
2019-02-26T15:01:54.145Z,26.18
2019-02-26T15:03:47.018Z,25.70
2019-02-26T15:04:47.037Z,25.21
2019-02-26T15:06:40.054Z,24.93
2019-02-26T15:07:40.002Z,24.74
2019-02-26T15:09:33.870Z,25.51
2019-02-26T15:10:33.888Z,24.84
2019-02-26T15:12:26.822Z,22.72
2019-02-26T15:13:26.811Z,22.44
2019-02-26T15:15:19.742Z,22.91
2019-02-26T15:16:19.737Z,22.91
2019-02-26T15:18:12.646Z,22.44
2019-02-26T15:19:12.665Z,22.44
2019-02-26T15:21:06.078Z,22.91
2019-02-26T15:22:06.085Z,22.82
2019-02-26T15:23:58.995Z,22.91
2019-02-26T15:24:59.046Z,23.49
2019-02-26T15:26:51.933Z,23.58
2019-02-26T15:27:51.939Z,24.35
2019-02-26T15:29:44.851Z,24.16
2019-02-26T15:30:44.871Z,23.68
2019-02-26T15:32:37.784Z,23.21
2019-02-26T15:33:37.801Z,23.11
2019-02-26T15:35:30.712Z,24.35
2019-02-26T15:36:30.720Z,24.45
2019-02-26T15:38:23.632Z,24.93
2019-02-26T15:39:23.639Z,25.02
2019-02-26T15:41:16.564Z,25.01
2019-02-26T15:42:16.574Z,24.93
2019-02-26T15:44:09.485Z,24.91
2019-02-26T15:45:09.499Z,25.01
2019-02-26T15:47:03.611Z,24.44
2019-02-26T15:48:03.971Z,24.26
2019-02-26T15:49:56.530Z,23.86
2019-02-26T15:50:56.545Z,24.15
2019-02-26T15:52:52.666Z,24.05
2019-02-26T15:53:49.470Z,24.15
2019-02-26T15:55:42.401Z,24.63
2019-02-26T15:56:42.405Z,23.96
2019-02-26T15:58:35.324Z,24.73
2019-02-26T15:59:36.119Z,24.24
2019-02-26T16:01:28.251Z,24.44
2019-02-26T16:02:28.570Z,24.05
2019-02-26T16:04:21.918Z,24.05
2019-02-26T16:05:21.942Z,24.43
2019-02-26T16:07:14.880Z,23.47
2019-02-26T16:08:14.858Z,23.77
2019-02-26T16:10:08.275Z,23.28
2019-02-26T16:11:08.284Z,23.48
2019-02-26T16:13:01.199Z,23.08
2019-02-26T16:14:01.224Z,23.94
2019-02-26T16:15:54.128Z,24.33
2019-02-26T16:16:54.133Z,24.52
2019-02-26T16:18:47.541Z,24.90
2019-02-26T16:19:47.567Z,24.90
2019-02-26T16:21:40.469Z,24.81
2019-02-26T16:22:40.486Z,24.71
2019-02-26T16:24:33.423Z,24.90
2019-02-26T16:25:33.436Z,25.38
2019-02-26T16:27:26.351Z,24.90
2019-02-26T16:28:27.316Z,24.90
2019-02-26T16:30:19.271Z,24.89
2019-02-26T16:31:19.285Z,25.66
2019-02-26T16:33:13.734Z,25.75
2019-02-26T16:34:13.052Z,25.66
2019-02-26T16:36:05.971Z,25.75
2019-02-26T16:37:07.816Z,26.04
2019-02-26T16:38:58.895Z,25.85
2019-02-26T16:39:58.956Z,26.03
2019-02-26T16:41:51.824Z,25.84
2019-02-26T16:42:51.827Z,25.74
2019-02-26T16:44:44.738Z,25.93
2019-02-26T16:45:44.751Z,26.12
2019-02-26T16:47:37.665Z,26.03
2019-02-26T16:48:37.714Z,26.03
2019-02-26T16:50:30.579Z,26.68
2019-02-26T16:51:30.594Z,27.07
2019-02-26T16:53:23.542Z,28.22
2019-02-26T16:54:23.588Z,28.31
2019-02-26T16:56:16.466Z,28.79
2019-02-26T16:57:16.670Z,28.88
2019-02-26T16:59:09.380Z,28.39
2019-02-26T17:00:09.395Z,28.01
2019-02-26T17:02:02.309Z,27.82
2019-02-26T17:03:02.316Z,27.44
2019-02-26T17:04:55.222Z,27.82
2019-02-26T17:05:55.237Z,27.91
2019-02-26T17:07:48.154Z,28.47
2019-02-26T17:08:48.190Z,28.66
2019-02-26T17:10:41.068Z,29.62
2019-02-26T17:11:41.092Z,29.81
2019-02-26T17:13:33.995Z,29.72
2019-02-26T17:14:34.004Z,29.81
2019-02-26T17:16:26.915Z,30.29
2019-02-26T17:17:26.924Z,30.46
2019-02-26T17:19:19.838Z,31.04
2019-02-26T17:20:22.461Z,30.94
2019-02-26T17:22:12.894Z,31.99
2019-02-26T17:23:14.048Z,32.37
2019-02-26T17:25:05.812Z,33.33
2019-02-26T17:26:05.820Z,33.52
2019-02-26T17:27:59.740Z,33.71
2019-02-26T17:28:59.744Z,34.46
2019-02-26T17:30:52.648Z,35.05
2019-02-26T17:31:52.660Z,35.32
2019-02-26T17:33:46.746Z,36.27
2019-02-26T17:34:45.577Z,36.66
2019-02-26T17:36:38.559Z,36.66
2019-02-26T17:37:41.443Z,37.04
2019-02-26T17:39:31.413Z,36.85
2019-02-26T17:40:31.429Z,37.42
2019-02-26T17:42:24.348Z,37.71
2019-02-26T17:43:25.149Z,37.78
2019-02-26T17:45:17.252Z,38.45
2019-02-26T17:46:17.265Z,38.83
2019-02-26T17:48:10.253Z,39.31
2019-02-26T17:49:10.192Z,39.98
2019-02-26T17:51:03.115Z,40.74
2019-02-26T17:52:03.119Z,40.64
2019-02-26T17:53:56.026Z,41.31
2019-02-26T17:54:56.047Z,41.50
2019-02-26T17:56:48.941Z,41.50
2019-02-26T17:57:48.975Z,42.36
2019-02-26T17:59:41.852Z,42.44
2019-02-26T18:00:41.865Z,42.84
2019-02-26T18:02:34.770Z,42.63
2019-02-26T18:03:34.780Z,42.91
2019-02-26T18:05:27.744Z,43.10
2019-02-26T18:06:27.758Z,43.49
2019-02-26T18:08:20.668Z,43.68
2019-02-26T18:09:20.680Z,44.15
2019-02-26T18:11:13.575Z,44.34
2019-02-26T18:12:13.589Z,44.15
2019-02-26T18:14:06.502Z,44.60
2019-02-26T18:15:06.507Z,44.70
2019-02-26T18:16:59.431Z,45.37
2019-02-26T18:17:59.443Z,45.28
2019-02-26T18:19:52.344Z,45.28
2019-02-26T18:20:52.349Z,45.28
2019-02-26T18:22:45.302Z,45.75
2019-02-26T18:23:45.298Z,45.28
2019-02-26T18:25:38.194Z,46.23
2019-02-26T18:26:38.205Z,46.23
2019-02-26T18:28:31.127Z,46.42
2019-02-26T18:29:31.123Z,46.80
2019-02-26T18:31:26.401Z,47.06
2019-02-26T18:32:24.033Z,47.28
2019-02-26T18:34:17.146Z,47.16
2019-02-26T18:35:17.151Z,47.25